Time;durP1;ratioP1;P1;durP2;ratioP2;P2;SDS_P1;SDS_P2;PMS_P1;PMS_P2;Temp;Humidity;BMP_temperature;BMP_pressure;BME280_temperature;BME280_humidity;BME280_pressure;Samples;Min_cycle;Max_cycle;Signal;HPM_P1;HPM_P2
2023/01/01 00:01:22;;;;;;;;;;;;;;;15.83;59.26;100728.72;4910619;29;19970;-73
2023/01/01 00:03:54;;;;;;;;;;;;;;;15.84;58.93;100730.41;4910497;29;20294;-72
2023/01/01 00:06:20;;;;;;;;;;;;;;;15.77;59.11;100744.50;4910083;29;19930;-71
2023/01/01 00:08:46;;;;;;;;;;;;;;;15.86;58.19;100732.88;4910880;29;19947;-72
2023/01/01 00:11:11;;;;;;;;;;;;;;;15.91;58.21;100750.34;4911470;29;19948;-71
2023/01/01 00:13:37;;;;;;;;;;;;;;;15.96;57.39;100744.84;4911374;29;20005;-72
2023/01/01 00:16:04;;;;;;;;;;;;;;;15.75;59.51;100748.59;4911276;29;19926;-69
2023/01/01 00:18:29;;;;;;;;;;;;;;;15.69;59.60;100758.00;4911001;29;19919;-73
2023/01/01 00:21:04;;;;;;;;;;;;;;;15.77;58.85;100758.34;4913240;29;20347;-73
2023/01/01 00:23:29;;;;;;;;;;;;;;;15.60;59.78;100760.38;4910046;29;19922;-72
2023/01/01 00:25:54;;;;;;;;;;;;;;;15.83;58.37;100751.72;4910139;29;19920;-72
2023/01/01 00:28:20;;;;;;;;;;;;;;;15.64;59.49;100744.13;4909127;29;19943;-73
2023/01/01 00:30:45;;;;;;;;;;;;;;;15.61;59.37;100748.22;4912867;29;19923;-73
2023/01/01 00:33:10;;;;;;;;;;;;;;;15.82;57.87;100757.53;4911879;29;19915;-69
2023/01/01 00:35:35;;;;;;;;;;;;;;;15.57;59.22;100742.38;4910738;29;19919;-70
2023/01/01 00:38:00;;;;;;;;;;;;;;;15.67;58.48;100766.56;4912104;29;19930;-72
2023/01/01 00:40:26;;;;;;;;;;;;;;;15.57;58.95;100742.38;4913117;29;19918;-72
2023/01/01 00:42:51;;;;;;;;;;;;;;;15.61;57.98;100744.59;4914921;29;20389;-70
2023/01/01 00:45:16;;;;;;;;;;;;;;;15.77;57.32;100763.88;4914799;29;19922;-67
2023/01/01 00:47:41;;;;;;;;;;;;;;;15.75;57.76;100735.59;4912791;29;19938;-72
2023/01/01 00:50:07;;;;;;;;;;;;;;;15.68;58.23;100742.50;4908858;29;19915;-72
2023/01/01 00:52:32;;;;;;;;;;;;;;;15.87;56.99;100740.13;4910459;29;19923;-71
2023/01/01 00:54:57;;;;;;;;;;;;;;;15.85;57.46;100740.38;4912939;29;19933;-72
2023/01/01 00:57:22;;;;;;;;;;;;;;;15.86;57.42;100739.25;4912423;29;20006;-71
2023/01/01 00:59:48;;;;;;;;;;;;;;;15.74;57.89;100752.50;4912775;29;19915;-71
2023/01/01 01:02:13;;;;;;;;;;;;;;;15.77;57.52;100765.81;4913535;29;20017;-72
2023/01/01 01:04:38;;;;;;;;;;;;;;;15.51;59.43;100770.28;4914191;29;19971;-72
2023/01/01 01:07:03;;;;;;;;;;;;;;;15.56;58.99;100764.78;4913015;29;19942;-72
2023/01/01 01:09:29;;;;;;;;;;;;;;;15.53;58.56;100762.56;4910097;29;19928;-72
2023/01/01 01:11:54;;;;;;;;;;;;;;;15.57;58.67;100766.47;4914234;29;19914;-73
2023/01/01 01:14:19;;;;;;;;;;;;;;;15.63;58.00;100775.66;4914228;29;20266;-73
2023/01/01 01:16:44;;;;;;;;;;;;;;;15.66;58.14;100761.28;4912541;29;19919;-71
2023/01/01 01:19:14;;;;;;;;;;;;;;;15.62;58.32;100766.50;4911508;29;20523;-69
2023/01/01 01:21:39;;;;;;;;;;;;;;;15.74;57.63;100752.50;4913323;29;19942;-71
2023/01/01 01:24:04;;;;;;;;;;;;;;;15.60;58.13;100748.47;4914799;29;20282;-72
2023/01/01 01:26:31;;;;;;;;;;;;;;;15.57;58.22;100739.63;4913558;29;19923;-69
2023/01/01 01:28:57;;;;;;;;;;;;;;;15.54;58.39;100759.53;4912643;29;19974;-73
2023/01/01 01:31:25;;;;;;;;;;;;;;;15.51;58.50;100761.97;4911032;29;19978;-72
2023/01/01 01:33:50;;;;;;;;;;;;;;;15.50;58.80;100776.91;4912071;29;19923;-73
2023/01/01 01:36:17;;;;;;;;;;;;;;;15.55;58.92;100782.50;4907357;29;20476;-72
2023/01/01 01:38:42;;;;;;;;;;;;;;;15.56;58.22;100787.78;4903038;29;20333;-67
2023/01/01 01:41:07;;;;;;;;;;;;;;;15.46;59.30;100784.94;4914663;29;20005;-66
2023/01/01 01:43:32;;;;;;;;;;;;;;;15.46;59.09;100784.94;4912897;29;19919;-72
2023/01/01 01:46:00;;;;;;;;;;;;;;;15.35;59.25;100794.22;4913191;29;19914;-71
2023/01/01 01:48:25;;;;;;;;;;;;;;;15.33;59.27;100774.31;4911649;29;19926;-71
2023/01/01 01:50:51;;;;;;;;;;;;;;;15.27;59.96;100775.38;4913387;29;19919;-71
2023/01/01 01:53:18;;;;;;;;;;;;;;;15.22;59.41;100784.47;4913665;29;19915;-72
2023/01/01 01:55:46;;;;;;;;;;;;;;;15.27;59.65;100781.72;4911421;29;19919;-72
2023/01/01 01:58:13;;;;;;;;;;;;;;;15.30;59.06;100803.31;4911241;29;19923;-72
2023/01/01 02:00:38;;;;;;;;;;;;;;;15.22;59.70;100794.69;4913100;29;19919;-71
2023/01/01 02:03:15;;;;;;;;;;;;;;;15.19;59.95;100795.19;4911221;29;19923;-72
2023/01/01 02:05:40;;;;;;;;;;;;;;;15.15;59.99;100810.66;4965402;23;19946;-67
2023/01/01 02:08:07;;;;;;;;;;;;;;;15.26;58.70;100793.06;4928216;29;20368;-67
2023/01/01 02:10:32;;;;;;;;;;;;;;;15.16;59.13;100817.88;4930305;29;19923;-71
2023/01/01 02:12:57;;;;;;;;;;;;;;;15.03;59.50;100824.66;4929983;29;19919;-72
2023/01/01 02:15:26;;;;;;;;;;;;;;;15.04;59.99;100823.56;4931452;29;19958;-70
2023/01/01 02:17:55;;;;;;;;;;;;;;;15.28;58.45;100816.59;4926925;29;19956;-72
2023/01/01 02:20:35;;;;;;;;;;;;;;;15.02;59.52;100817.47;4931346;29;19918;-72
2023/01/01 02:23:03;;;;;;;;;;;;;;;15.06;58.98;100818.63;4929970;29;20342;-72
2023/01/01 02:25:47;;;;;;;;;;;;;;;14.87;59.66;100820.91;4930805;29;19943;-69
2023/01/01 02:28:14;;;;;;;;;;;;;;;14.88;59.67;100813.44;4930344;29;19966;-72
2023/01/01 02:30:42;;;;;;;;;;;;;;;14.94;59.36;100802.16;4930008;29;20405;-72
2023/01/01 02:33:13;;;;;;;;;;;;;;;15.03;58.76;100808.88;4930807;29;19914;-67
2023/01/01 02:35:41;;;;;;;;;;;;;;;14.85;60.05;100813.94;4928522;29;20014;-72
2023/01/01 02:38:06;;;;;;;;;;;;;;;14.95;58.86;100809.38;4928051;29;19919;-73
2023/01/01 02:40:33;;;;;;;;;;;;;;;14.82;59.12;100812.53;4929774;29;19925;-71
2023/01/01 02:42:58;;;;;;;;;;;;;;;14.85;58.81;100809.28;4931562;29;19914;-71
2023/01/01 02:45:24;;;;;;;;;;;;;;;14.70;59.84;100821.00;4931514;29;20001;-72
2023/01/01 02:47:49;;;;;;;;;;;;;;;14.72;60.11;100820.72;4929602;29;19918;-71
2023/01/01 02:50:22;;;;;;;;;;;;;;;14.75;59.73;100806.38;4930713;29;19919;-71
2023/01/01 02:53:05;;;;;;;;;;;;;;;14.78;58.30;100808.63;4929861;29;19919;-66
2023/01/01 02:55:38;;;;;;;;;;;;;;;14.77;59.76;100831.84;4931064;29;19991;-72
2023/01/01 03:00:56;;;;;;;;;;;;;;;14.63;60.00;100838.84;4930367;29;19926;-69
2023/01/01 03:03:21;;;;;;;;;;;;;;;14.73;59.40;100839.81;4929638;29;19985;-72
2023/01/01 03:08:43;;;;;;;;;;;;;;;14.65;59.83;100851.34;4928108;29;19926;-71
2023/01/01 03:11:12;;;;;;;;;;;;;;;14.91;58.71;100851.63;4912039;29;19998;-69
2023/01/01 03:13:49;;;;;;;;;;;;;;;14.71;59.40;100855.00;4926729;29;19925;-67
2023/01/01 03:16:14;;;;;;;;;;;;;;;14.77;59.69;100845.66;4930363;29;20393;-71
2023/01/01 03:19:09;;;;;;;;;;;;;;;14.79;59.87;100841.53;4927653;29;19929;-71
2023/01/01 03:21:36;;;;;;;;;;;;;;;14.70;59.66;100864.38;4930565;29;20005;-71
2023/01/01 03:24:01;;;;;;;;;;;;;;;14.70;60.10;100859.69;4929388;29;19929;-71
2023/01/01 03:26:30;;;;;;;;;;;;;;;14.99;59.34;100835.41;4930329;29;19918;-72
2023/01/01 03:28:57;;;;;;;;;;;;;;;14.62;60.83;100859.31;4928887;29;21367;-71
2023/01/01 03:31:24;;;;;;;;;;;;;;;14.67;60.42;100857.44;4929829;29;19978;-71
2023/01/01 03:34:09;;;;;;;;;;;;;;;14.63;60.90;100859.03;4928526;29;19918;-72
2023/01/01 03:36:41;;;;;;;;;;;;;;;14.56;61.43;100852.03;4928878;29;19925;-71
2023/01/01 03:39:12;;;;;;;;;;;;;;;14.53;61.58;100850.63;4929276;29;20385;-72
2023/01/01 03:41:37;;;;;;;;;;;;;;;14.59;61.39;100860.63;4929598;29;19925;-69
2023/01/01 03:44:07;;;;;;;;;;;;;;;14.51;61.80;100856.41;4930209;29;20354;-68
2023/01/01 03:46:34;;;;;;;;;;;;;;;14.49;61.83;100869.63;4927872;29;20014;-72
2023/01/01 03:48:59;;;;;;;;;;;;;;;14.51;62.11;100877.69;4930005;29;19914;-71
2023/01/01 03:51:37;;;;;;;;;;;;;;;14.40;62.80;100882.22;4930462;29;20009;-71
2023/01/01 03:54:11;;;;;;;;;;;;;;;14.60;61.83;100881.69;4928331;29;20333;-67
2023/01/01 03:56:44;;;;;;;;;;;;;;;14.44;62.93;100890.81;4924886;29;19918;-71
2023/01/01 03:59:19;;;;;;;;;;;;;;;14.34;63.28;100893.44;4929208;29;19926;-69
2023/01/01 04:01:47;;;;;;;;;;;;;;;14.27;63.84;100877.88;4927775;29;19919;-72
2023/01/01 04:04:14;;;;;;;;;;;;;;;14.35;63.52;100886.84;4928777;29;20154;-71
2023/01/01 04:06:39;;;;;;;;;;;;;;;14.49;62.78;100886.22;4927347;29;20009;-72
2023/01/01 04:09:08;;;;;;;;;;;;;;;14.55;62.67;100895.44;4929172;29;19918;-72
2023/01/01 04:14:28;;;;;;;;;;;;;;;14.52;63.07;100896.75;4929181;29;20073;-72
2023/01/01 04:16:54;;;;;;;;;;;;;;;14.40;63.55;100898.78;4928884;29;19921;-71
2023/01/01 04:19:19;;;;;;;;;;;;;;;14.45;63.75;100909.91;4929703;29;19914;-72
2023/01/01 04:21:44;;;;;;;;;;;;;;;14.44;63.59;100899.09;4928237;29;19925;-73
2023/01/01 04:24:10;;;;;;;;;;;;;;;14.50;63.54;100914.72;4928788;29;20289;-69
2023/01/01 04:26:35;;;;;;;;;;;;;;;14.36;64.39;100910.59;4929610;29;19954;-69
2023/01/01 04:29:00;;;;;;;;;;;;;;;14.31;64.53;100911.38;4929314;29;19918;-73
2023/01/01 04:31:25;;;;;;;;;;;;;;;14.31;64.57;100903.06;4928277;29;19918;-72
2023/01/01 04:33:54;;;;;;;;;;;;;;;14.20;65.11;100899.34;4927967;29;19922;-70
2023/01/01 04:36:19;;;;;;;;;;;;;;;14.33;64.58;100900.03;4929347;29;20337;-69
2023/01/01 04:38:44;;;;;;;;;;;;;;;14.20;65.15;100909.53;4928670;29;19925;-72
2023/01/01 04:41:09;;;;;;;;;;;;;;;14.22;64.88;100919.22;4916735;29;19958;-72
2023/01/01 04:43:34;;;;;;;;;;;;;;;14.17;65.22;100919.16;4923192;29;19926;-70
2023/01/01 04:46:01;;;;;;;;;;;;;;;14.20;65.40;100921.44;4929079;29;19919;-72
2023/01/01 04:48:27;;;;;;;;;;;;;;;14.13;65.97;100926.28;4930339;29;20129;-72
2023/01/01 04:50:56;;;;;;;;;;;;;;;14.13;66.07;100922.69;4929218;29;20017;-72
2023/01/01 04:53:21;;;;;;;;;;;;;;;14.10;66.18;100924.03;4928323;29;19927;-72
2023/01/01 04:55:46;;;;;;;;;;;;;;;14.05;67.01;100936.94;4927921;29;20027;-72
2023/01/01 04:58:11;;;;;;;;;;;;;;;14.12;66.35;100929.28;4929770;29;20090;-72
2023/01/01 05:00:37;;;;;;;;;;;;;;;14.16;66.50;100927.72;4929250;29;20534;-72
2023/01/01 05:03:02;;;;;;;;;;;;;;;14.07;67.02;100934.75;4930040;29;19919;-67
2023/01/01 05:05:27;;;;;;;;;;;;;;;14.16;66.68;100936.81;4932475;29;19973;-71
2023/01/01 05:07:52;;;;;;;;;;;;;;;14.14;67.09;100952.81;4931685;29;19919;-72
2023/01/01 05:10:17;;;;;;;;;;;;;;;14.25;66.64;100959.34;4922057;29;20393;-72
2023/01/01 05:12:43;;;;;;;;;;;;;;;14.09;67.42;100973.97;4932248;29;19918;-70
2023/01/01 05:15:08;;;;;;;;;;;;;;;14.11;67.42;100960.78;4932592;29;19919;-71
2023/01/01 05:17:33;;;;;;;;;;;;;;;14.09;67.57;100963.78;4932984;29;19915;-73
2023/01/01 05:19:59;;;;;;;;;;;;;;;14.10;67.35;100956.34;4933337;29;19985;-69
2023/01/01 05:22:24;;;;;;;;;;;;;;;14.11;67.81;100963.53;4932013;29;20366;-72
2023/01/01 05:24:49;;;;;;;;;;;;;;;14.02;68.14;100985.19;4932138;29;19919;-72
2023/01/01 05:27:14;;;;;;;;;;;;;;;14.03;68.37;100993.22;4932085;29;19918;-72
2023/01/01 05:29:39;;;;;;;;;;;;;;;14.12;68.08;101012.16;4931910;29;20298;-71
2023/01/01 05:32:05;;;;;;;;;;;;;;;14.01;68.75;101016.66;4931525;29;19923;-72
2023/01/01 05:34:30;;;;;;;;;;;;;;;14.09;68.47;100996.94;4931270;29;19919;-70
2023/01/01 05:36:56;;;;;;;;;;;;;;;14.03;69.12;100996.00;4931577;29;20588;-71
2023/01/01 05:39:21;;;;;;;;;;;;;;;14.00;69.20;100999.25;4932901;29;19922;-72
2023/01/01 05:41:46;;;;;;;;;;;;;;;13.93;69.11;101009.63;4931603;29;20013;-69
2023/01/01 05:44:11;;;;;;;;;;;;;;;13.91;69.95;101006.28;4931066;29;20388;-72
2023/01/01 05:46:37;;;;;;;;;;;;;;;13.97;69.58;101005.28;4931231;29;19914;-67
2023/01/01 05:49:03;;;;;;;;;;;;;;;14.09;69.24;101013.50;4933134;29;19918;-72
2023/01/01 05:51:29;;;;;;;;;;;;;;;14.06;69.45;101018.69;4932598;29;19919;-72
2023/01/01 05:53:54;;;;;;;;;;;;;;;13.98;69.90;101025.44;4932151;29;19950;-72
2023/01/01 05:56:20;;;;;;;;;;;;;;;13.99;70.26;101030.75;4932520;29;19966;-68
2023/01/01 05:58:45;;;;;;;;;;;;;;;13.86;71.47;101047.59;4931949;29;19914;-72
2023/01/01 06:01:12;;;;;;;;;;;;;;;13.85;71.15;101040.41;4926169;29;19926;-73
2023/01/01 06:03:38;;;;;;;;;;;;;;;13.76;71.42;101048.25;4931000;29;19922;-69
2023/01/01 06:06:04;;;;;;;;;;;;;;;13.86;71.83;101063.34;4930930;29;20050;-70
2023/01/01 06:08:29;;;;;;;;;;;;;;;13.70;72.13;101065.81;4931128;29;19975;-72
2023/01/01 06:11:02;;;;;;;;;;;;;;;13.71;72.31;101063.88;4930949;29;19966;-73
2023/01/01 06:13:27;;;;;;;;;;;;;;;13.67;72.54;101079.25;4930836;29;20040;-70
2023/01/01 06:15:56;;;;;;;;;;;;;;;13.50;74.23;101079.19;4931289;29;20017;-73
2023/01/01 06:18:22;;;;;;;;;;;;;;;13.53;73.80;101091.66;4932059;29;20285;-72
2023/01/01 06:20:47;;;;;;;;;;;;;;;13.48;73.95;101087.72;4930030;29;19918;-71
2023/01/01 06:23:12;;;;;;;;;;;;;;;13.47;74.26;101086.03;4931445;29;19919;-73
2023/01/01 06:25:37;;;;;;;;;;;;;;;13.72;73.91;101099.50;4932218;29;19944;-67
2023/01/01 06:28:02;;;;;;;;;;;;;;;13.50;74.33;101121.41;4931831;29;20274;-73
2023/01/01 06:30:28;;;;;;;;;;;;;;;13.50;75.11;101129.69;4930385;29;19927;-69
2023/01/01 06:32:53;;;;;;;;;;;;;;;13.40;77.05;101143.28;4931032;29;19942;-72
2023/01/01 06:35:18;;;;;;;;;;;;;;;13.02;79.98;101145.66;4931155;29;20280;-73
2023/01/01 06:37:43;;;;;;;;;;;;;;;12.52;81.18;101144.19;4926735;29;19919;-71
2023/01/01 06:40:08;;;;;;;;;;;;;;;12.34;82.39;101145.09;4932225;29;19958;-73
2023/01/01 06:42:34;;;;;;;;;;;;;;;12.29;82.90;101152.38;4931131;29;19925;-72
2023/01/01 06:44:59;;;;;;;;;;;;;;;12.22;82.73;101146.97;4931897;29;19949;-73
2023/01/01 06:47:24;;;;;;;;;;;;;;;12.12;83.27;101152.19;4928699;29;19976;-73
2023/01/01 06:49:49;;;;;;;;;;;;;;;12.08;84.29;101154.56;4930693;29;19925;-73
2023/01/01 06:52:14;;;;;;;;;;;;;;;12.03;83.91;101151.69;4929479;29;19918;-73
2023/01/01 06:54:40;;;;;;;;;;;;;;;12.10;83.49;101159.84;4930942;29;20259;-71
2023/01/01 06:57:05;;;;;;;;;;;;;;;12.09;83.34;101159.00;4931104;29;19949;-73
2023/01/01 06:59:30;;;;;;;;;;;;;;;12.06;84.07;101177.88;4929359;29;19922;-72
2023/01/01 07:01:55;;;;;;;;;;;;;;;12.30;83.16;101178.84;4928189;29;20009;-72
2023/01/01 07:04:20;;;;;;;;;;;;;;;12.52;82.19;101191.03;4931005;29;19922;-73
2023/01/01 07:06:45;;;;;;;;;;;;;;;12.24;83.11;101186.13;4929812;29;19975;-72
2023/01/01 07:09:11;;;;;;;;;;;;;;;12.20;83.40;101176.63;4929585;29;19930;-72
2023/01/01 07:11:36;;;;;;;;;;;;;;;12.23;86.44;101187.19;4920783;29;19926;-70
2023/01/01 07:14:02;;;;;;;;;;;;;;;12.17;85.69;101199.16;4930756;29;19919;-72
2023/01/01 07:16:27;;;;;;;;;;;;;;;12.21;84.97;101203.09;4930825;29;19923;-69
2023/01/01 07:18:52;;;;;;;;;;;;;;;12.13;85.42;101207.03;4930681;29;19978;-71
2023/01/01 07:21:20;;;;;;;;;;;;;;;12.18;85.90;101203.59;4930805;29;19969;-72
2023/01/01 07:23:46;;;;;;;;;;;;;;;12.05;85.91;101203.75;4928698;29;20386;-72
2023/01/01 07:26:11;;;;;;;;;;;;;;;12.03;87.18;101197.66;4930842;29;19961;-66
2023/01/01 07:28:36;;;;;;;;;;;;;;;12.07;87.17;101199.69;4929710;29;19919;-72
2023/01/01 07:31:01;;;;;;;;;;;;;;;11.93;86.65;101223.81;4929693;29;20408;-72
2023/01/01 07:33:26;;;;;;;;;;;;;;;11.99;87.14;101215.69;4930735;29;19950;-73
2023/01/01 07:35:51;;;;;;;;;;;;;;;11.99;86.83;101229.47;4929240;29;20363;-73
2023/01/01 07:38:17;;;;;;;;;;;;;;;12.02;86.27;101226.25;4927453;29;19921;-72
2023/01/01 07:40:42;;;;;;;;;;;;;;;11.97;86.16;101229.69;4929844;29;19969;-73
2023/01/01 07:43:07;;;;;;;;;;;;;;;11.97;85.80;101229.69;4929989;29;19919;-69
2023/01/01 07:45:33;;;;;;;;;;;;;;;11.84;85.38;101233.44;4930139;29;20262;-71
2023/01/01 07:47:59;;;;;;;;;;;;;;;11.98;84.69;101234.13;4929851;29;19941;-70
2023/01/01 07:50:25;;;;;;;;;;;;;;;11.78;85.10;101239.00;4930109;29;20658;-73
2023/01/01 07:52:50;;;;;;;;;;;;;;;11.82;84.78;101249.34;4928366;29;19919;-69
2023/01/01 07:55:17;;;;;;;;;;;;;;;11.74;85.07;101266.13;4929767;29;19926;-71
2023/01/01 07:57:42;;;;;;;;;;;;;;;11.76;85.20;101264.00;4928392;29;20449;-71
2023/01/01 08:00:09;;;;;;;;;;;;;;;11.67;85.90;101282.69;4929771;29;19918;-70
2023/01/01 08:02:34;;;;;;;;;;;;;;;11.73;86.91;101288.38;4928988;29;20563;-73
2023/01/01 08:04:59;;;;;;;;;;;;;;;11.58;87.01;101294.22;4928125;29;19925;-66
2023/01/01 08:07:24;;;;;;;;;;;;;;;11.49;87.44;101303.81;4927772;29;19919;-67
2023/01/01 08:09:49;;;;;;;;;;;;;;;11.38;88.74;101333.75;4918905;29;19915;-73
2023/01/01 08:12:15;;;;;;;;;;;;;;;11.35;91.86;101336.97;4922669;29;19918;-73
2023/01/01 08:14:40;;;;;;;;;;;;;;;11.06;90.25;101335.69;4929666;29;19914;-71
2023/01/01 08:17:05;;;;;;;;;;;;;;;11.21;91.66;101343.63;4927732;29;19914;-66
2023/01/01 08:19:30;;;;;;;;;;;;;;;11.10;92.61;101341.56;4928597;29;19919;-73
2023/01/01 08:21:55;;;;;;;;;;;;;;;11.05;94.22;101322.16;4927236;29;20380;-72
2023/01/01 08:24:21;;;;;;;;;;;;;;;10.95;94.14;101319.06;4927828;29;19934;-74
2023/01/01 08:26:47;;;;;;;;;;;;;;;11.00;95.05;101327.47;4926541;29;19925;-74
2023/01/01 08:29:12;;;;;;;;;;;;;;;10.87;96.49;101321.00;4926210;29;19922;-73
2023/01/01 08:31:37;;;;;;;;;;;;;;;10.89;95.93;101318.03;4928243;29;20266;-72
2023/01/01 08:34:03;;;;;;;;;;;;;;;10.91;96.56;101330.50;4929799;29;19919;-74
2023/01/01 08:36:28;;;;;;;;;;;;;;;10.93;97.50;101330.28;4929345;29;19922;-74
2023/01/01 08:38:53;;;;;;;;;;;;;;;11.21;98.54;101326.28;4929952;29;19919;-71
2023/01/01 08:41:18;;;;;;;;;;;;;;;11.04;98.94;101339.72;4932166;29;19919;-74
2023/01/01 08:43:43;;;;;;;;;;;;;;;10.89;99.13;101346.34;4931877;29;19921;-74
2023/01/01 08:46:09;;;;;;;;;;;;;;;10.76;100.00;101360.19;4932445;29;19914;-74
2023/01/01 08:48:34;;;;;;;;;;;;;;;10.79;100.00;101365.22;4932010;29;19925;-73
2023/01/01 08:51:00;;;;;;;;;;;;;;;10.83;100.00;101369.22;4931980;29;20278;-74
2023/01/01 08:53:29;;;;;;;;;;;;;;;10.85;100.00;101369.88;4932172;29;20013;-73
2023/01/01 08:55:55;;;;;;;;;;;;;;;10.80;100.00;101371.59;4930738;29;20014;-73
2023/01/01 08:58:20;;;;;;;;;;;;;;;11.03;100.00;101369.13;4925427;29;19957;-70
2023/01/01 09:00:45;;;;;;;;;;;;;;;10.83;100.00;101369.22;4931727;29;19990;-73
2023/01/01 09:03:10;;;;;;;;;;;;;;;10.83;100.00;101376.63;4932529;29;19925;-73
2023/01/01 09:05:36;;;;;;;;;;;;;;;10.78;100.00;101366.28;4931191;29;19926;-74
2023/01/01 09:08:01;;;;;;;;;;;;;;;10.89;100.00;101357.34;4931756;29;19918;-73
2023/01/01 09:10:26;;;;;;;;;;;;;;;10.82;100.00;101353.81;4931265;29;20640;-74
2023/01/01 09:12:51;;;;;;;;;;;;;;;10.84;100.00;101353.56;4931103;29;19988;-74
2023/01/01 09:15:17;;;;;;;;;;;;;;;10.83;100.00;101343.66;4928138;29;19926;-66
2023/01/01 09:17:42;;;;;;;;;;;;;;;10.82;100.00;101356.56;4930037;29;20608;-72
2023/01/01 09:20:07;;;;;;;;;;;;;;;10.91;100.00;101370.88;4932598;29;19915;-69
2023/01/01 09:22:33;;;;;;;;;;;;;;;10.79;100.00;101367.97;4932948;29;19915;-72
2023/01/01 09:24:58;;;;;;;;;;;;;;;10.79;100.00;101364.38;4930494;29;19918;-72
2023/01/01 09:27:23;;;;;;;;;;;;;;;10.79;100.00;101367.97;4930960;29;19962;-72
2023/01/01 09:29:48;;;;;;;;;;;;;;;10.85;100.00;101360.78;4931458;29;19932;-72
2023/01/01 09:32:14;;;;;;;;;;;;;;;10.97;100.00;101367.25;4931946;29;20017;-70
2023/01/01 09:34:39;;;;;;;;;;;;;;;11.07;100.00;101377.75;4929765;29;19926;-70
2023/01/01 09:37:04;;;;;;;;;;;;;;;11.06;100.00;101387.09;4931695;29;19922;-72
2023/01/01 09:39:29;;;;;;;;;;;;;;;10.99;100.00;101367.88;4931843;29;19921;-72
2023/01/01 09:42:03;;;;;;;;;;;;;;;10.94;100.00;101369.59;4930424;29;20361;-69
2023/01/01 09:44:28;;;;;;;;;;;;;;;10.92;100.00;101383.56;4931281;29;19919;-73
2023/01/01 09:46:58;;;;;;;;;;;;;;;10.93;100.00;101379.75;4931965;29;19971;-66
2023/01/01 09:49:38;;;;;;;;;;;;;;;11.00;100.00;101385.19;4932345;29;19926;-72
2023/01/01 09:52:04;;;;;;;;;;;;;;;11.11;100.00;101376.25;4928882;29;19927;-73
2023/01/01 09:54:38;;;;;;;;;;;;;;;11.18;100.00;101383.38;4926865;29;20319;-70
2023/01/01 09:57:05;;;;;;;;;;;;;;;11.26;100.00;101386.97;4927283;29;20364;-71
2023/01/01 09:59:31;;;;;;;;;;;;;;;11.35;100.00;101378.22;4926036;29;19970;-70
2023/01/01 10:02:02;;;;;;;;;;;;;;;11.34;100.00;101379.25;4930176;29;19957;-73
2023/01/01 10:04:27;;;;;;;;;;;;;;;11.38;100.00;101376.91;4913110;29;19927;-73
2023/01/01 10:07:02;;;;;;;;;;;;;;;11.37;100.00;101373.31;4911373;29;19983;-72
2023/01/01 10:09:27;;;;;;;;;;;;;;;11.41;100.00;101379.22;4926039;29;19919;-72
2023/01/01 10:12:02;;;;;;;;;;;;;;;11.45;100.00;101383.19;4929127;29;19919;-73
2023/01/01 10:14:30;;;;;;;;;;;;;;;11.41;100.00;101381.97;4929315;29;19942;-72
2023/01/01 10:16:58;;;;;;;;;;;;;;;11.42;100.00;101384.50;4928012;29;19926;-71
2023/01/01 10:19:28;;;;;;;;;;;;;;;11.51;100.00;101378.72;4931023;29;20258;-70
2023/01/01 10:21:56;;;;;;;;;;;;;;;11.50;100.00;101377.88;4927574;29;19922;-69
2023/01/01 10:24:36;;;;;;;;;;;;;;;11.54;100.00;101381.00;4931379;29;19921;-70
2023/01/01 10:27:02;;;;;;;;;;;;;;;11.56;100.00;101382.50;4930711;29;19919;-71
2023/01/01 10:29:31;;;;;;;;;;;;;;;11.55;100.00;101386.28;4928587;29;20318;-73
2023/01/01 10:31:56;;;;;;;;;;;;;;;11.69;100.00;101389.78;4927532;29;19918;-67
2023/01/01 10:34:24;;;;;;;;;;;;;;;11.96;100.00;101384.91;4930567;29;19941;-72
2023/01/01 10:36:58;;;;;;;;;;;;;;;12.29;99.55;101391.97;4930021;29;19937;-73
2023/01/01 10:39:24;;;;;;;;;;;;;;;12.50;98.14;101382.41;4929440;29;19919;-73
2023/01/01 10:41:49;;;;;;;;;;;;;;;12.57;98.47;101381.28;4929985;29;19918;-67
2023/01/01 10:44:16;;;;;;;;;;;;;;;12.70;96.43;101383.84;4907077;29;19919;-71
2023/01/01 10:46:44;;;;;;;;;;;;;;;12.83;96.17;101385.59;4927306;29;20347;-69
2023/01/01 10:49:11;;;;;;;;;;;;;;;12.94;95.66;101379.28;4929739;29;19974;-71
2023/01/01 10:51:44;;;;;;;;;;;;;;;13.03;94.93;101390.84;4927227;29;20006;-73
2023/01/01 10:54:22;;;;;;;;;;;;;;;13.18;94.28;101393.19;4930646;29;19915;-67
2023/01/01 10:56:47;;;;;;;;;;;;;;;13.20;93.97;101385.50;4928964;29;19923;-65
2023/01/01 10:59:31;;;;;;;;;;;;;;;13.21;93.91;101392.69;4931385;29;19915;-73
2023/01/01 11:02:15;;;;;;;;;;;;;;;13.35;93.40;101393.38;4920253;29;19918;-73
2023/01/01 11:04:40;;;;;;;;;;;;;;;13.65;92.17;101401.59;4928921;29;19926;-69
2023/01/01 11:07:06;;;;;;;;;;;;;;;13.92;89.91;101399.22;4922383;29;19965;-73
2023/01/01 11:09:31;;;;;;;;;;;;;;;13.88;90.22;101398.84;4925266;29;19965;-75
2023/01/01 11:12:01;;;;;;;;;;;;;;;13.83;90.70;101409.75;4925234;29;20352;-72
2023/01/01 11:14:26;;;;;;;;;;;;;;;13.77;91.07;101414.31;4931006;29;19922;-72
2023/01/01 11:16:52;;;;;;;;;;;;;;;13.75;91.26;101404.63;4929199;29;19923;-72
2023/01/01 11:19:22;;;;;;;;;;;;;;;13.84;90.84;101419.75;4929250;29;19997;-69
2023/01/01 11:21:48;;;;;;;;;;;;;;;13.72;90.74;101416.97;4920855;29;19914;-70
2023/01/01 11:24:20;;;;;;;;;;;;;;;13.61;90.68;101425.22;4931577;29;19961;-72
2023/01/01 11:26:46;;;;;;;;;;;;;;;13.56;91.16;101427.84;4929879;29;19973;-73
2023/01/01 11:29:14;;;;;;;;;;;;;;;13.44;91.38;101425.06;4931646;29;20005;-72
2023/01/01 11:31:39;;;;;;;;;;;;;;;13.33;91.68;101415.69;4928252;29;19922;-73
2023/01/01 11:34:18;;;;;;;;;;;;;;;13.34;92.06;101403.56;4930099;29;19915;-73
2023/01/01 11:36:44;;;;;;;;;;;;;;;13.37;91.66;101403.09;4929235;29;20289;-72
2023/01/01 11:39:19;;;;;;;;;;;;;;;13.32;91.86;101402.09;4931075;29;19919;-73
2023/01/01 11:41:48;;;;;;;;;;;;;;;13.41;91.32;101392.44;4928477;29;19919;-72
2023/01/01 11:44:23;;;;;;;;;;;;;;;13.23;91.74;101396.09;4931200;29;19914;-73
2023/01/01 11:46:49;;;;;;;;;;;;;;;13.28;91.43;101387.97;4928645;29;20017;-73
2023/01/01 11:49:19;;;;;;;;;;;;;;;13.23;90.85;101376.81;4930125;29;20140;-72
2023/01/01 11:51:45;;;;;;;;;;;;;;;13.13;91.53;101380.09;4929770;29;19926;-73
2023/01/01 11:54:21;;;;;;;;;;;;;;;13.14;90.45;101370.72;4931036;29;19915;-66
2023/01/01 11:56:49;;;;;;;;;;;;;;;12.94;91.77;101400.50;4929837;29;19922;-70
2023/01/01 11:59:16;;;;;;;;;;;;;;;13.05;90.27;101393.34;4929803;29;19919;-70
2023/01/01 12:01:49;;;;;;;;;;;;;;;12.99;91.09;101404.25;4928992;29;19949;-72
2023/01/01 12:04:15;;;;;;;;;;;;;;;12.98;90.73;101405.34;4926299;29;19926;-71
2023/01/01 12:06:42;;;;;;;;;;;;;;;13.08;90.24;101399.25;4929965;29;19919;-69
2023/01/01 12:09:12;;;;;;;;;;;;;;;13.14;89.59;101403.00;4929848;29;19919;-72
2023/01/01 12:11:45;;;;;;;;;;;;;;;13.16;89.63;101414.63;4932323;29;19911;-72
2023/01/01 12:14:21;;;;;;;;;;;;;;;13.13;88.88;101404.91;4933224;29;20361;-69
2023/01/01 12:16:49;;;;;;;;;;;;;;;13.22;89.23;101400.75;4933701;29;19956;-73
2023/01/01 12:19:21;;;;;;;;;;;;;;;13.41;87.73;101393.25;4934887;29;19915;-67
2023/01/01 12:21:48;;;;;;;;;;;;;;;13.55;87.07;101393.06;4933922;29;19918;-73
2023/01/01 12:24:14;;;;;;;;;;;;;;;13.69;85.76;101391.78;4932515;29;20001;-72
2023/01/01 12:26:42;;;;;;;;;;;;;;;13.68;86.91;101392.81;4934125;29;19915;-70
2023/01/01 12:29:25;;;;;;;;;;;;;;;14.05;85.62;101387.09;4933075;29;20322;-68
2023/01/01 12:31:50;;;;;;;;;;;;;;;14.74;82.33;101383.38;4933997;29;19922;-74
2023/01/01 12:34:24;;;;;;;;;;;;;;;15.66;79.60;101387.91;4930286;29;19915;-72
2023/01/01 12:36:58;;;;;;;;;;;;;;;16.61;73.63;101374.88;4933476;29;19919;-72
2023/01/01 12:39:23;;;;;;;;;;;;;;;17.35;70.08;101377.13;4933864;29;19911;-70
2023/01/01 12:41:57;;;;;;;;;;;;;;;17.82;67.19;101384.78;4930763;29;19919;-73
2023/01/01 12:44:31;;;;;;;;;;;;;;;16.98;70.44;101393.66;4933802;29;20282;-67